createdAt,value
2023-05-06T00:05:40.907Z,7.70
2023-05-06T00:09:46.024Z,7.75
2023-05-06T00:13:49.257Z,7.45
2023-05-06T00:17:52.790Z,6.82
2023-05-06T00:21:56.124Z,7.95
2023-05-06T00:30:07.768Z,5.95
2023-05-06T00:34:10.823Z,6.88
2023-05-06T00:38:15.643Z,8.30
2023-05-06T00:42:20.058Z,7.18
2023-05-06T00:46:23.064Z,8.32
2023-05-06T00:50:26.350Z,4.35
2023-05-06T00:58:36.452Z,8.45
2023-05-06T01:02:47.189Z,7.30
2023-05-06T01:07:00.632Z,6.00
2023-05-06T01:11:08.912Z,7.28
2023-05-06T01:15:17.568Z,8.93
2023-05-06T01:19:39.462Z,9.32
2023-05-06T01:23:58.659Z,8.63
2023-05-06T01:28:01.855Z,8.82
2023-05-06T01:32:17.949Z,7.47
2023-05-06T01:36:30.321Z,7.22
2023-05-06T01:40:37.193Z,8.02
2023-05-06T01:44:41.342Z,10.35
2023-05-06T01:48:46.802Z,10.27
2023-05-06T01:52:59.337Z,10.48
2023-05-06T01:57:03.531Z,8.60
2023-05-06T02:01:06.624Z,7.80
2023-05-06T02:05:10.275Z,7.63
2023-05-06T02:09:13.471Z,6.10
2023-05-06T02:13:19.861Z,8.05
2023-05-06T02:17:23.526Z,9.07
2023-05-06T02:25:31.500Z,6.97
2023-05-06T02:29:38.607Z,6.57
2023-05-06T02:33:43.228Z,6.53
2023-05-06T02:37:46.357Z,5.30
2023-05-06T02:41:49.150Z,8.38
2023-05-06T02:45:55.300Z,6.03
2023-05-06T02:49:58.760Z,6.18
2023-05-06T02:54:04.228Z,4.93
2023-05-06T02:58:07.622Z,6.60
2023-05-06T03:02:14.016Z,6.65
2023-05-06T03:06:17.122Z,6.38
2023-05-06T03:10:20.536Z,6.28
2023-05-06T03:14:24.119Z,6.72
2023-05-06T03:18:28.933Z,4.93
2023-05-06T03:22:32.095Z,7.53
2023-05-06T03:30:38.161Z,6.65
2023-05-06T03:34:42.739Z,7.05
2023-05-06T03:38:46.055Z,6.43
2023-05-06T03:42:49.082Z,5.47
2023-05-06T03:46:52.047Z,5.30
2023-05-06T03:50:56.620Z,4.63
2023-05-06T03:54:59.820Z,5.13
2023-05-06T03:59:03.970Z,6.00
2023-05-06T04:03:07.074Z,6.50
2023-05-06T04:11:14.229Z,5.25
2023-05-06T04:15:17.109Z,5.07
2023-05-06T04:19:19.848Z,4.80
2023-05-06T04:23:24.182Z,5.25
2023-05-06T04:27:29.863Z,6.03
2023-05-06T04:31:33.180Z,4.80
2023-05-06T04:35:36.947Z,3.50
2023-05-06T04:39:42.567Z,6.35
2023-05-06T04:43:45.744Z,4.97
2023-05-06T04:47:48.503Z,6.45
2023-05-06T04:51:51.659Z,6.35
2023-05-06T04:55:56.644Z,7.20
2023-05-06T04:59:59.789Z,4.60
2023-05-06T05:08:05.671Z,4.13
2023-05-06T05:12:10.201Z,5.35
2023-05-06T05:16:13.046Z,5.28
2023-05-06T05:20:18.163Z,5.53
2023-05-06T05:24:21.192Z,4.55
2023-05-06T05:28:25.659Z,4.47
2023-05-06T05:32:28.926Z,6.15
2023-05-06T05:36:31.953Z,4.43
2023-05-06T05:40:34.831Z,3.78
2023-05-06T05:44:39.305Z,4.50
2023-05-06T05:48:42.124Z,3.78
2023-05-06T05:52:45.141Z,6.05
2023-05-06T05:56:48.062Z,4.13
2023-05-06T06:00:52.467Z,4.05
2023-05-06T06:04:55.517Z,4.32
2023-05-06T06:08:58.899Z,5.10
2023-05-06T06:13:03.251Z,4.22
2023-05-06T06:17:09.825Z,3.33
2023-05-06T06:21:12.775Z,5.38
2023-05-06T06:25:15.663Z,5.00
2023-05-06T06:29:19.994Z,2.28
2023-05-06T06:33:24.297Z,3.40
2023-05-06T06:37:27.365Z,3.72
2023-05-06T06:41:31.106Z,3.92
2023-05-06T06:45:34.567Z,2.72
2023-05-06T06:49:40.492Z,4.03
2023-05-06T06:53:44.000Z,5.03
2023-05-06T06:57:46.813Z,3.38
2023-05-06T07:01:50.080Z,3.35
2023-05-06T07:05:54.410Z,2.60
2023-05-06T07:09:59.441Z,3.95
2023-05-06T07:14:02.277Z,3.10
2023-05-06T07:18:05.452Z,4.22
2023-05-06T07:22:09.891Z,3.53
2023-05-06T07:26:12.891Z,3.78
2023-05-06T07:34:18.519Z,3.78
2023-05-06T07:38:24.323Z,6.38
2023-05-06T07:42:27.171Z,4.00
2023-05-06T07:46:30.258Z,2.88
2023-05-06T07:50:33.682Z,6.05
2023-05-06T07:54:38.043Z,3.90
2023-05-06T07:58:40.936Z,5.15
2023-05-06T08:06:48.209Z,5.28
2023-05-06T08:10:59.864Z,4.32
2023-05-06T08:15:04.067Z,3.03
2023-05-06T08:19:21.523Z,3.20
2023-05-06T08:23:31.674Z,3.55
2023-05-06T08:31:55.734Z,3.53
2023-05-06T08:35:59.813Z,4.43
2023-05-06T08:40:02.876Z,4.28
2023-05-06T08:44:09.968Z,2.35
2023-05-06T08:48:13.262Z,4.72
2023-05-06T08:52:16.465Z,4.05
2023-05-06T08:56:20.269Z,3.13
2023-05-06T09:00:28.119Z,2.97
2023-05-06T09:04:31.156Z,4.40
2023-05-06T09:08:34.643Z,3.13
2023-05-06T09:12:39.148Z,3.40
2023-05-06T09:16:45.289Z,3.75
2023-05-06T09:20:50.163Z,4.53
2023-05-06T09:24:57.189Z,3.47
2023-05-06T09:29:00.746Z,3.55
2023-05-06T09:33:05.923Z,3.97
2023-05-06T09:37:08.862Z,3.13
2023-05-06T09:41:12.542Z,4.80
2023-05-06T09:45:17.648Z,4.68
2023-05-06T09:49:22.160Z,3.70
2023-05-06T09:53:25.659Z,3.55
2023-05-06T09:57:31.373Z,4.18
2023-05-06T10:01:37.507Z,4.15
2023-05-06T10:05:43.171Z,3.45
2023-05-06T10:09:45.730Z,4.97
2023-05-06T10:13:52.006Z,7.43
2023-05-06T10:17:56.514Z,4.70
2023-05-06T10:22:08.634Z,7.65
2023-05-06T10:26:13.715Z,5.22
2023-05-06T10:30:18.024Z,5.30
2023-05-06T10:34:22.709Z,5.40
2023-05-06T10:38:31.482Z,5.97
2023-05-06T10:42:36.300Z,6.38
2023-05-06T10:47:00.941Z,4.63
2023-05-06T10:51:22.966Z,6.07
2023-05-06T10:55:33.483Z,4.53
2023-05-06T10:59:36.384Z,4.65
2023-05-06T11:03:43.897Z,4.45
2023-05-06T11:07:49.404Z,6.00
2023-05-06T11:12:00.625Z,4.20
2023-05-06T11:16:03.496Z,7.28
2023-05-06T11:20:23.664Z,5.03
2023-05-06T11:24:28.753Z,5.18
2023-05-06T11:28:35.061Z,5.05
2023-05-06T11:32:38.245Z,5.78
2023-05-06T11:36:52.543Z,4.90
2023-05-06T11:40:55.482Z,11.60
2023-05-06T11:45:02.207Z,4.88
2023-05-06T11:49:05.291Z,5.97
2023-05-06T11:53:08.877Z,4.97
2023-05-06T11:57:12.255Z,5.03
2023-05-06T12:01:16.453Z,5.47
2023-05-06T12:05:23.753Z,5.72
2023-05-06T12:09:27.288Z,7.60
2023-05-06T12:13:30.790Z,5.32
2023-05-06T12:17:35.270Z,6.13
2023-05-06T12:21:41.469Z,4.93
2023-05-06T12:25:46.202Z,5.18
2023-05-06T12:29:55.210Z,6.32
2023-05-06T12:34:01.153Z,5.40
2023-05-06T12:38:11.485Z,11.13
2023-05-06T12:42:24.273Z,5.45
2023-05-06T12:46:28.503Z,7.80
2023-05-06T12:50:41.084Z,6.28
2023-05-06T12:54:43.984Z,6.35
2023-05-06T12:58:57.535Z,7.40
2023-05-06T13:03:00.744Z,7.45
2023-05-06T13:07:05.386Z,7.38
2023-05-06T13:11:08.372Z,6.43
2023-05-06T13:15:12.325Z,8.18
2023-05-06T13:19:30.924Z,8.75
2023-05-06T13:23:38.287Z,6.90
2023-05-06T13:27:41.153Z,7.15
2023-05-06T13:31:44.051Z,8.18
2023-05-06T13:35:47.144Z,7.50
2023-05-06T13:39:51.761Z,7.10
2023-05-06T13:43:55.392Z,6.28
2023-05-06T13:47:59.110Z,6.38
2023-05-06T13:52:02.561Z,6.32
2023-05-06T13:56:08.199Z,4.72
2023-05-06T14:00:14.323Z,4.93
2023-05-06T14:04:17.756Z,5.15
2023-05-06T14:08:21.280Z,5.22
2023-05-06T14:12:27.453Z,6.68
2023-05-06T14:16:30.692Z,6.30
2023-05-06T14:20:34.926Z,6.65
2023-05-06T14:24:40.446Z,8.57
2023-05-06T14:28:44.910Z,12.70
2023-05-06T14:32:48.527Z,7.05
2023-05-06T14:36:53.930Z,5.35
2023-05-06T14:40:59.428Z,7.28
2023-05-06T14:45:04.515Z,7.55
2023-05-06T14:49:08.585Z,7.43
2023-05-06T14:53:12.405Z,6.72
2023-05-06T14:57:15.218Z,9.32
2023-05-06T15:01:19.659Z,11.63
2023-05-06T15:05:22.585Z,8.55
2023-05-06T15:09:25.686Z,9.50
2023-05-06T15:13:29.402Z,8.60
2023-05-06T15:17:35.504Z,6.72
2023-05-06T15:21:39.672Z,8.73
2023-05-06T15:25:43.022Z,7.57
2023-05-06T15:33:51.021Z,8.18
2023-05-06T15:37:59.124Z,10.05
2023-05-06T15:42:04.140Z,7.78
2023-05-06T15:46:08.097Z,7.65
2023-05-06T15:50:21.218Z,8.77
2023-05-06T15:54:37.503Z,11.45
2023-05-06T15:58:46.638Z,8.00
2023-05-06T16:02:50.177Z,12.18
2023-05-06T16:06:54.842Z,10.07
2023-05-06T16:10:57.943Z,10.25
2023-05-06T16:15:01.322Z,8.55
2023-05-06T16:23:08.156Z,9.00
2023-05-06T16:27:16.404Z,8.98
2023-05-06T16:31:21.986Z,11.40
2023-05-06T16:35:30.371Z,10.10
2023-05-06T16:39:35.055Z,10.13
2023-05-06T16:43:37.897Z,9.38
2023-05-06T16:47:41.611Z,8.05
2023-05-06T16:51:45.555Z,10.55
2023-05-06T16:55:52.467Z,10.80
2023-05-06T17:00:05.733Z,12.60
2023-05-06T17:04:09.799Z,11.73
2023-05-06T17:08:13.837Z,8.02
2023-05-06T17:12:18.238Z,8.32
2023-05-06T17:16:21.909Z,10.50
2023-05-06T17:20:25.561Z,6.32
2023-05-06T17:28:33.629Z,11.05
2023-05-06T17:32:36.902Z,9.52
2023-05-06T17:40:43.988Z,13.80
2023-05-06T17:44:48.380Z,11.88
2023-05-06T17:48:52.006Z,7.60
2023-05-06T17:52:55.584Z,11.68
2023-05-06T17:56:58.374Z,11.52
2023-05-06T18:01:03.013Z,9.52
2023-05-06T18:05:06.707Z,12.00
2023-05-06T18:09:10.446Z,11.77
2023-05-06T18:13:13.563Z,10.73
2023-05-06T18:17:18.133Z,10.40
2023-05-06T18:21:21.413Z,10.13
2023-05-06T18:25:24.731Z,11.80
2023-05-06T18:29:30.490Z,8.48
2023-05-06T18:33:35.780Z,7.97
2023-05-06T18:37:38.634Z,8.90
2023-05-06T18:41:41.705Z,6.80
2023-05-06T18:45:44.273Z,11.52
2023-05-06T18:49:48.917Z,9.88
2023-05-06T18:53:52.331Z,7.88
2023-05-06T18:57:55.363Z,6.43
2023-05-06T19:01:58.200Z,8.82
2023-05-06T19:06:04.063Z,12.30
2023-05-06T19:10:08.040Z,9.73
2023-05-06T19:14:11.325Z,7.72
2023-05-06T19:22:18.705Z,7.75
2023-05-06T19:26:21.862Z,9.27
2023-05-06T19:30:25.253Z,6.57
2023-05-06T19:34:28.374Z,9.02
2023-05-06T19:38:34.756Z,7.97
2023-05-06T19:42:37.453Z,6.55
2023-05-06T19:46:40.773Z,14.23
2023-05-06T19:54:48.196Z,9.57
2023-05-06T19:58:52.232Z,7.85
2023-05-06T20:02:55.756Z,7.25
2023-05-06T20:06:59.024Z,12.18
2023-05-06T20:11:03.476Z,8.68
2023-05-06T20:15:07.760Z,10.50
2023-05-06T20:19:11.536Z,10.68
2023-05-06T20:23:14.661Z,9.57
2023-05-06T20:27:20.728Z,9.98
2023-05-06T20:31:23.673Z,8.18
2023-05-06T20:35:27.174Z,9.25
2023-05-06T20:39:30.174Z,10.25
2023-05-06T20:43:35.480Z,9.32
2023-05-06T20:47:38.459Z,9.13
2023-05-06T20:51:41.358Z,10.73
2023-05-06T20:55:44.662Z,8.23
2023-05-06T20:59:51.372Z,8.95
2023-05-06T21:03:54.637Z,6.53
2023-05-06T21:07:57.315Z,7.88
2023-05-06T21:12:00.598Z,5.50
2023-05-06T21:20:09.167Z,8.40
2023-05-06T21:24:12.202Z,8.52
2023-05-06T21:28:15.083Z,6.50
2023-05-06T21:32:19.447Z,6.97
2023-05-06T21:36:23.250Z,7.63
2023-05-06T21:40:26.243Z,9.82
2023-05-06T21:44:28.813Z,9.13
2023-05-06T21:48:33.240Z,7.97
2023-05-06T21:52:36.427Z,6.78
2023-05-06T22:00:42.174Z,7.50
2023-05-06T22:04:46.305Z,7.45
2023-05-06T22:08:49.256Z,9.07
2023-05-06T22:12:52.456Z,8.32
2023-05-06T22:16:55.606Z,6.50
2023-05-06T22:25:02.856Z,7.53
2023-05-06T22:29:06.100Z,6.25
2023-05-06T22:33:08.974Z,6.53
2023-05-06T22:37:14.128Z,8.18
2023-05-06T22:41:17.266Z,8.63
2023-05-06T22:45:20.240Z,8.63
2023-05-06T22:49:23.675Z,8.98
2023-05-06T22:53:28.284Z,7.22
2023-05-06T22:57:31.243Z,8.48
2023-05-06T23:01:34.719Z,8.55
2023-05-06T23:09:41.825Z,5.55
2023-05-06T23:13:44.990Z,5.05
2023-05-06T23:17:47.808Z,5.93
2023-05-06T23:21:51.181Z,7.65
2023-05-06T23:25:56.016Z,7.03
2023-05-06T23:29:59.256Z,9.77
2023-05-06T23:34:02.118Z,4.75
2023-05-06T23:38:06.539Z,5.97
2023-05-06T23:42:11.365Z,8.30
2023-05-06T23:46:14.628Z,8.82
2023-05-06T23:50:17.680Z,6.35
2023-05-06T23:54:21.080Z,6.40
2023-05-06T23:58:25.501Z,6.82
